Time;durP1;ratioP1;P1;durP2;ratioP2;P2;SDS_P1;SDS_P2;PMS_P1;PMS_P2;Temp;Humidity;BMP_temperature;BMP_pressure;BME280_temperature;BME280_humidity;BME280_pressure;Samples;Min_cycle;Max_cycle;Signal;HPM_P1;HPM_P2
2022/02/06 00:02:45;;;;;;;14.45;9.60;;;;;;;-1.46;93.70;99851.19;1799332;79;21244;-79
2022/02/06 00:05:50;;;;;;;15.63;10.45;;;;;;;-1.43;93.62;99848.30;1769152;81;21306;-79
2022/02/06 00:08:56;;;;;;;15.48;10.68;;;;;;;-1.46;93.51;99845.82;1732072;82;21712;-80
2022/02/06 00:12:01;;;;;;;15.32;9.75;;;;;;;-1.56;93.53;99840.27;1769369;81;21169;-79
2022/02/06 00:15:08;;;;;;;16.62;11.57;;;;;;;-1.55;93.98;99839.33;1769964;81;21201;-79
2022/02/06 00:18:13;;;;;;;16.07;10.25;;;;;;;-1.52;94.13;99837.74;1770315;81;21288;-79
2022/02/06 00:21:21;;;;;;;14.90;10.35;;;;;;;-1.48;94.24;99840.58;1770020;81;21390;-79
2022/02/06 00:24:53;;;;;;;17.65;11.48;;;;;;;-1.44;94.30;99827.32;1770170;81;21378;-79
2022/02/06 00:28:01;;;;;;;16.35;10.28;;;;;;;-1.35;94.57;99830.67;1776556;80;21626;-79
2022/02/06 00:31:01;;;;;;;17.17;11.63;;;;;;;-1.31;94.29;99832.16;1766908;80;21354;-79
2022/02/06 00:43:56;;;;;;;16.27;11.33;;;;;;;-1.21;94.12;99816.73;1763126;81;21227;-78
2022/02/06 00:47:03;;;;;;;15.45;10.18;;;;;;;-1.16;94.29;99815.91;1762919;81;21874;-78
2022/02/06 00:50:09;;;;;;;17.00;11.08;;;;;;;-1.12;94.26;99806.66;1764118;81;21160;-78
2022/02/06 00:53:17;;;;;;;14.83;10.75;;;;;;;-1.14;94.06;99808.09;1762448;81;21286;-77
2022/02/06 00:56:21;;;;;;;16.07;10.78;;;;;;;-1.11;94.30;99804.34;1763116;81;21902;-78
2022/02/06 00:59:27;;;;;;;16.10;10.08;;;;;;;-1.13;94.15;99800.89;1762816;81;21294;-78
2022/02/06 01:02:32;;;;;;;12.98;9.03;;;;;;;-1.15;94.27;99805.05;1762412;81;21377;-78
2022/02/06 01:05:37;;;;;;;15.25;10.40;;;;;;;-1.15;94.34;99802.84;1762662;81;21306;-78
2022/02/06 01:08:44;;;;;;;12.07;8.73;;;;;;;-1.17;94.45;99798.09;1762423;81;21787;-78
2022/02/06 01:11:51;;;;;;;18.32;11.10;;;;;;;-1.15;94.66;99794.30;1761750;81;21156;-79
2022/02/06 01:15:09;;;;;;;17.25;11.33;;;;;;;-1.17;94.69;99794.92;1784614;79;21235;-79
2022/02/06 01:18:19;;;;;;;18.85;11.75;;;;;;;-1.21;94.67;99789.41;1816686;79;21247;-79
2022/02/06 01:21:34;;;;;;;16.10;11.25;;;;;;;-1.26;94.80;99787.55;1746801;82;21366;-80
2022/02/06 01:24:38;;;;;;;16.02;9.85;;;;;;;-1.31;95.01;99789.72;1745204;82;21314;-79
2022/02/06 01:30:58;;;;;;;16.20;9.90;;;;;;;-1.44;95.50;99785.73;1699796;84;21333;-79
2022/02/06 01:34:01;;;;;;;13.55;9.20;;;;;;;-1.49;95.84;99792.41;1710015;84;21202;-79
2022/02/06 01:37:22;;;;;;;18.65;10.95;;;;;;;-1.48;96.31;99790.09;1711573;84;21404;-79
2022/02/06 01:43:42;;;;;;;19.60;10.90;;;;;;;-1.43;96.81;99785.25;1702710;84;21288;-78
2022/02/06 02:03:43;;;;;;;22.02;12.18;;;;;;;-1.38;97.49;99785.77;1749505;82;21283;-78
2022/02/06 02:06:50;;;;;;;20.80;11.57;;;;;;;-1.39;97.58;99782.72;1741133;82;21311;-78
2022/02/06 02:10:11;;;;;;;18.82;11.95;;;;;;;-1.33;97.75;99776.88;1735026;82;21973;-78
2022/02/06 02:20:06;;;;;;;27.95;14.80;;;;;;;-1.20;98.01;99775.50;1741403;82;21272;-78
2022/02/06 02:23:25;;;;;;;22.77;15.03;;;;;;;-1.13;98.12;99782.10;1735191;82;21915;-81
2022/02/06 02:46:10;;;;;;;24.20;14.93;;;;;;;-0.60;98.28;99769.13;1741332;82;21310;-78
2022/02/06 02:49:15;;;;;;;24.90;14.87;;;;;;;-0.63;97.88;99755.44;1734108;82;21304;-78
2022/02/06 02:55:54;;;;;;;24.92;15.28;;;;;;;-0.66;97.42;99765.09;1735281;82;21757;-78
2022/02/06 02:59:04;;;;;;;22.60;14.75;;;;;;;-0.67;97.31;99769.22;1739852;82;21992;-78
2022/02/06 03:02:00;;;;;;;;;;;;;;;-0.68;97.17;99759.45;1737367;82;21335;-78
2022/02/06 03:05:05;;;;;;;22.95;14.20;;;;;;;-0.73;97.09;99755.78;1739368;82;20292;-78
2022/02/06 03:08:11;;;;;;;24.77;15.23;;;;;;;-0.75;97.23;99751.48;1769791;81;21176;-78
2022/02/06 03:11:17;;;;;;;23.50;14.40;;;;;;;-0.75;97.41;99748.80;1740873;82;21298;-78
2022/02/06 03:14:38;;;;;;;18.73;13.30;;;;;;;-0.73;97.60;99737.47;1716596;82;21731;-78
2022/02/06 03:17:44;;;;;;;28.40;16.85;;;;;;;-0.69;97.73;99747.86;1772730;81;21374;-78
2022/02/06 03:20:42;;;;;;;27.62;17.60;;;;;;;-0.74;97.71;99746.52;1749693;82;21811;-78
2022/02/06 03:23:53;;;;;;;22.30;14.13;;;;;;;-0.74;97.93;99743.34;1685284;84;21369;-78
2022/02/06 03:26:56;;;;;;;27.50;15.28;;;;;;;-0.70;98.09;99739.93;1709364;84;21914;-79
2022/02/06 03:30:02;;;;;;;23.15;15.72;;;;;;;-0.75;97.98;99745.66;1725728;82;21347;-80
2022/02/06 03:33:07;;;;;;;27.00;16.93;;;;;;;-0.82;98.03;99750.63;1748796;82;21148;-79
2022/02/06 03:36:11;;;;;;;27.48;17.12;;;;;;;-0.85;98.17;99752.69;1733534;82;21300;-79
2022/02/06 03:39:22;;;;;;;23.50;15.48;;;;;;;-0.88;98.25;99739.02;1702441;84;21768;-79
2022/02/06 03:42:33;;;;;;;24.25;16.82;;;;;;;-0.90;98.35;99734.73;1705261;84;21156;-79
2022/02/06 03:45:43;;;;;;;25.97;16.12;;;;;;;-0.95;98.40;99741.79;1704071;83;21748;-79
2022/02/06 03:48:49;;;;;;;28.02;16.48;;;;;;;-0.98;98.47;99743.88;1713969;83;21311;-79
2022/02/06 03:51:51;;;;;;;23.98;15.15;;;;;;;-0.98;98.60;99744.73;1706306;83;21321;-79
2022/02/06 03:54:57;;;;;;;25.20;16.00;;;;;;;-0.99;98.47;99757.76;1718702;83;21346;-79
2022/02/06 03:58:01;;;;;;;30.35;17.85;;;;;;;-1.10;98.28;99764.44;1728853;83;21764;-78
2022/02/06 04:01:06;;;;;;;22.13;15.25;;;;;;;-1.26;98.44;99766.57;1707676;83;21186;-78
2022/02/06 04:04:11;;;;;;;28.85;16.90;;;;;;;-1.36;98.80;99780.67;1740819;82;21329;-78
2022/02/06 04:07:18;;;;;;;28.45;16.20;;;;;;;-1.39;99.17;99790.77;1742100;82;21309;-78
2022/02/06 04:10:25;;;;;;;32.28;17.15;;;;;;;-1.45;99.33;99788.55;1741800;82;21872;-78
2022/02/06 04:13:33;;;;;;;27.77;16.90;;;;;;;-1.54;99.40;99788.73;1741702;82;21435;-78
2022/02/06 04:16:42;;;;;;;27.73;16.85;;;;;;;-1.63;99.66;99794.27;1742037;82;21630;-78
2022/02/06 04:19:45;;;;;;;30.52;18.90;;;;;;;-1.65;99.97;99795.34;1741562;82;21316;-78
2022/02/06 04:22:51;;;;;;;32.30;19.73;;;;;;;-1.72;100.00;99793.59;1741922;82;21899;-78
2022/02/06 04:25:56;;;;;;;28.05;18.12;;;;;;;-1.74;100.00;99805.39;1740995;82;21214;-78
2022/02/06 04:29:04;;;;;;;27.73;16.82;;;;;;;-1.77;100.00;99807.83;1741005;82;21360;-78
2022/02/06 04:32:12;;;;;;;32.53;17.27;;;;;;;-1.84;100.00;99803.85;1755010;81;21346;-79
2022/02/06 04:35:20;;;;;;;30.90;18.65;;;;;;;-1.93;100.00;99801.38;1755881;81;21208;-79
2022/02/06 04:38:46;;;;;;;29.98;18.87;;;;;;;-2.02;100.00;99799.34;1755764;81;21315;-78
2022/02/06 04:45:28;;;;;;;28.85;17.60;;;;;;;-2.10;100.00;99803.05;1743294;81;21348;-78
2022/02/06 04:52:00;;;;;;;30.30;17.10;;;;;;;-2.25;100.00;99816.19;1720276;83;21703;-78
2022/02/06 05:11:29;;;;;;;28.80;17.20;;;;;;;-2.53;100.00;99827.47;1719137;83;21236;-81
2022/02/06 05:27:36;;;;;;;31.90;17.48;;;;;;;-2.71;100.00;99850.13;1719642;83;21885;-78
2022/02/06 05:30:43;;;;;;;38.58;20.55;;;;;;;-2.68;100.00;99845.89;1719766;83;21362;-79
2022/02/06 05:33:39;;;;;;;28.80;16.67;;;;;;;-2.69;100.00;99861.09;1719573;83;21228;-79
2022/02/06 05:36:45;;;;;;;29.63;17.37;;;;;;;-2.69;100.00;99855.74;1721380;83;21291;-79
2022/02/06 05:39:51;;;;;;;31.35;18.62;;;;;;;-2.71;100.00;99859.50;1720808;83;21334;-79
2022/02/06 05:42:57;;;;;;;30.17;16.73;;;;;;;-2.73;100.00;99858.73;1720548;83;21314;-79
2022/02/06 05:46:02;;;;;;;28.92;17.50;;;;;;;-2.72;100.00;99855.11;1719901;83;21340;-78
2022/02/06 05:49:08;;;;;;;29.77;16.35;;;;;;;-2.74;100.00;99851.18;1719479;83;21823;-78
2022/02/06 05:52:14;;;;;;;32.60;18.30;;;;;;;-2.74;100.00;99855.20;1720462;83;21764;-79
2022/02/06 05:55:19;;;;;;;29.87;17.55;;;;;;;-2.75;100.00;99853.97;1720445;83;21327;-77
2022/02/06 05:58:25;;;;;;;33.35;17.17;;;;;;;-2.73;100.00;99865.42;1720491;83;21359;-78
2022/02/06 06:01:30;;;;;;;26.48;16.40;;;;;;;-2.76;100.00;99860.30;1719488;83;21751;-81
2022/02/06 06:04:37;;;;;;;32.93;19.73;;;;;;;-2.78;100.00;99860.86;1720594;83;21311;-78
2022/02/06 06:07:44;;;;;;;31.93;17.70;;;;;;;-2.75;100.00;99866.02;1719546;83;21327;-78
2022/02/06 06:10:50;;;;;;;25.55;16.82;;;;;;;-2.70;100.00;99870.58;1719389;83;21185;-78
2022/02/06 06:13:55;;;;;;;24.52;15.98;;;;;;;-2.64;100.00;99869.67;1720569;83;21272;-78
2022/02/06 06:17:01;;;;;;;36.90;18.95;;;;;;;-2.55;100.00;99870.87;1719456;83;21350;-78
2022/02/06 06:20:11;;;;;;;32.40;17.30;;;;;;;-2.47;100.00;99871.70;1719286;83;21315;-78
2022/02/06 06:23:14;;;;;;;34.20;19.77;;;;;;;-2.38;100.00;99879.97;1720532;83;21835;-78
2022/02/06 06:26:22;;;;;;;29.35;17.12;;;;;;;-2.32;100.00;99885.39;1720524;83;21346;-79
2022/02/06 06:29:28;;;;;;;31.23;18.60;;;;;;;-2.25;100.00;99885.36;1720695;83;21820;-78
2022/02/06 06:32:33;;;;;;;25.48;15.78;;;;;;;-2.19;100.00;99893.45;1719104;82;21200;-78
2022/02/06 06:35:39;;;;;;;31.87;17.67;;;;;;;-2.16;100.00;99890.57;1718938;83;21929;-78
2022/02/06 06:38:46;;;;;;;33.40;20.17;;;;;;;-2.11;99.92;99891.11;1720541;83;21827;-78
2022/02/06 06:41:50;;;;;;;28.45;17.98;;;;;;;-2.08;99.58;99896.23;1720794;83;21193;-78
2022/02/06 06:44:56;;;;;;;34.23;18.62;;;;;;;-2.02;99.47;99902.98;1731778;82;21354;-79
2022/02/06 06:48:03;;;;;;;30.77;17.27;;;;;;;-1.96;99.22;99903.44;1731591;82;21343;-78
2022/02/06 06:51:11;;;;;;;26.37;15.80;;;;;;;-1.93;98.82;99895.20;1800899;79;21332;-78
2022/02/06 06:54:21;;;;;;;30.00;17.67;;;;;;;-1.90;98.52;99904.34;1781864;79;21665;-78
2022/02/06 06:57:31;;;;;;;31.20;17.32;;;;;;;-1.86;98.25;99907.67;1768902;81;21316;-78
2022/02/06 07:00:54;;;;;;;30.10;17.00;;;;;;;-1.78;97.95;99904.47;1769228;81;22199;-78
2022/02/06 07:03:48;;;;;;;28.87;17.70;;;;;;;-1.68;97.62;99902.84;1768027;81;21294;-79
2022/02/06 07:06:56;;;;;;;27.20;17.70;;;;;;;-1.59;97.03;99899.52;1769368;81;21317;-79
2022/02/06 07:10:02;;;;;;;25.90;16.07;;;;;;;-1.49;96.54;99891.18;1796629;79;21296;-79
2022/02/06 07:13:09;;;;;;;26.50;16.42;;;;;;;-1.36;96.15;99902.75;1799250;79;21208;-79
2022/02/06 07:16:15;;;;;;;28.57;17.23;;;;;;;-1.23;95.53;99901.84;1770739;79;21152;-79
2022/02/06 07:19:22;;;;;;;20.95;13.48;;;;;;;-1.16;94.76;99907.16;1769637;81;21341;-79
2022/02/06 07:22:34;;;;;;;27.55;16.45;;;;;;;-1.10;94.14;99904.02;1767807;81;21168;-79
2022/02/06 07:25:38;;;;;;;27.98;15.78;;;;;;;-1.00;93.63;99909.56;1767553;81;21831;-79
2022/02/06 07:28:48;;;;;;;30.90;17.07;;;;;;;-0.92;93.00;99912.06;1766237;81;21355;-80
2022/02/06 07:31:55;;;;;;;24.27;14.87;;;;;;;-0.81;92.42;99919.32;1784138;80;21237;-79
2022/02/06 07:35:03;;;;;;;31.10;18.17;;;;;;;-0.71;91.90;99927.06;1709225;83;21299;-79
2022/02/06 07:38:08;;;;;;;26.82;16.27;;;;;;;-0.64;91.10;99924.80;1745521;82;21763;-79
2022/02/06 07:41:13;;;;;;;28.38;17.87;;;;;;;-0.58;90.64;99925.17;1716475;83;21196;-79
2022/02/06 07:44:19;;;;;;;28.42;17.57;;;;;;;-0.46;90.17;99929.28;1723916;82;21869;-79
2022/02/06 07:47:25;;;;;;;32.63;16.12;;;;;;;-0.38;89.44;99931.73;1743803;82;21650;-78
2022/02/06 07:50:29;;;;;;;30.23;18.05;;;;;;;-0.29;88.92;99936.41;1714600;83;21858;-78
2022/02/06 07:53:35;;;;;;;26.97;15.75;;;;;;;-0.24;88.50;99929.84;1724299;82;21351;-79
2022/02/06 07:56:41;;;;;;;26.17;17.45;;;;;;;-0.12;88.22;99932.95;1744669;82;21855;-78
2022/02/06 07:59:47;;;;;;;27.73;16.60;;;;;;;0.06;87.89;99936.91;1725866;83;21305;-79
2022/02/06 08:02:57;;;;;;;28.05;16.25;;;;;;;0.33;87.50;99934.38;1726500;83;21329;-78
2022/02/06 08:06:04;;;;;;;24.60;14.63;;;;;;;0.62;87.02;99932.95;1725928;83;21182;-78
2022/02/06 08:09:04;;;;;;;25.65;16.07;;;;;;;0.87;85.95;99927.80;1762353;80;21815;-79
2022/02/06 08:12:10;;;;;;;26.57;15.43;;;;;;;1.07;85.11;99938.78;1709305;83;21238;-79
2022/02/06 08:15:16;;;;;;;20.65;13.10;;;;;;;1.22;84.21;99937.06;1738112;82;21310;-79
2022/02/06 08:18:24;;;;;;;28.45;16.10;;;;;;;1.36;83.66;99936.39;1750896;82;21357;-78
2022/02/06 08:21:29;;;;;;;26.55;16.07;;;;;;;1.41;82.94;99935.05;1751910;82;21176;-79
2022/02/06 08:24:35;;;;;;;28.25;15.70;;;;;;;1.44;82.57;99937.97;1730246;82;21182;-79
2022/02/06 08:27:40;;;;;;;24.65;14.58;;;;;;;1.52;82.60;99944.94;1721070;83;21385;-79
2022/02/06 08:30:46;;;;;;;20.15;13.30;;;;;;;1.65;81.98;99949.67;1722168;82;21302;-79
2022/02/06 08:33:51;;;;;;;24.63;13.95;;;;;;;1.72;81.57;99953.55;1721239;83;21916;-79
2022/02/06 08:36:59;;;;;;;22.65;14.15;;;;;;;1.78;81.59;99950.33;1713140;83;21370;-79
2022/02/06 08:40:12;;;;;;;21.82;14.93;;;;;;;1.90;81.50;99958.39;1712453;82;21234;-79
2022/02/06 08:43:12;;;;;;;23.00;13.28;;;;;;;1.96;81.25;99959.22;1769949;81;21709;-78
2022/02/06 08:46:19;;;;;;;19.37;12.23;;;;;;;2.00;81.17;99959.32;1769531;81;21317;-78
2022/02/06 08:49:24;;;;;;;17.80;12.18;;;;;;;2.14;81.17;99960.84;1768427;81;21381;-79
2022/02/06 08:52:29;;;;;;;22.75;13.30;;;;;;;2.35;81.28;99958.98;1769908;81;21297;-79
2022/02/06 08:55:35;;;;;;;19.05;12.30;;;;;;;2.59;81.14;99960.55;1770199;81;21176;-79
2022/02/06 08:58:40;;;;;;;20.12;12.60;;;;;;;2.84;80.54;99957.42;1769720;81;21207;-79
2022/02/06 09:01:46;;;;;;;25.85;14.53;;;;;;;3.08;79.90;99959.79;1770079;81;21759;-79
2022/02/06 09:04:51;;;;;;;30.00;13.48;;;;;;;3.33;79.38;99963.34;1768767;81;21369;-79
2022/02/06 09:07:58;;;;;;;18.17;12.05;;;;;;;3.61;78.58;99962.19;1770328;81;21349;-79
2022/02/06 09:11:03;;;;;;;19.55;12.07;;;;;;;3.81;77.79;99962.59;1770150;81;21758;-79
2022/02/06 09:14:09;;;;;;;15.85;10.45;;;;;;;3.93;76.85;99963.79;1769909;81;21290;-78
2022/02/06 09:17:15;;;;;;;19.17;13.03;;;;;;;3.97;76.29;99963.86;1770049;81;21901;-78
2022/02/06 09:20:21;;;;;;;16.85;10.82;;;;;;;4.07;76.23;99962.86;1768859;81;21362;-78
2022/02/06 09:23:26;;;;;;;17.50;10.45;;;;;;;4.25;75.93;99961.64;1769651;81;21731;-79
2022/02/06 09:26:32;;;;;;;16.35;9.78;;;;;;;4.33;75.37;99963.63;1770177;81;21231;-80
2022/02/06 09:29:42;;;;;;;14.87;9.60;;;;;;;4.32;74.99;99957.34;1769303;81;21635;-80
2022/02/06 09:35:51;;;;;;;18.35;10.55;;;;;;;4.32;75.01;99954.63;1770124;81;21814;-79
2022/02/06 09:38:57;;;;;;;17.70;9.08;;;;;;;4.33;74.59;99956.87;1770018;81;21222;-80
2022/02/06 09:42:03;;;;;;;15.38;9.20;;;;;;;4.27;74.48;99954.21;1770303;81;21715;-79
2022/02/06 09:45:11;;;;;;;20.02;10.75;;;;;;;4.24;74.79;99950.97;1783980;79;21165;-79
2022/02/06 09:48:19;;;;;;;19.85;10.55;;;;;;;4.19;75.21;99952.75;1802391;79;21177;-80
2022/02/06 09:51:24;;;;;;;17.37;10.08;;;;;;;4.21;75.34;99951.24;1716847;82;21664;-79
2022/02/06 09:54:30;;;;;;;15.93;9.53;;;;;;;4.26;75.35;99944.39;1801088;79;21359;-79
2022/02/06 09:57:52;;;;;;;20.80;9.85;;;;;;;4.29;75.16;99946.81;1732779;82;21162;-79
2022/02/06 10:00:46;;;;;;;19.30;10.93;;;;;;;4.29;74.87;99939.20;1776550;79;21248;-79
2022/02/06 10:03:57;;;;;;;16.37;9.05;;;;;;;4.31;74.85;99949.37;1770041;81;21366;-79
2022/02/06 10:07:10;;;;;;;19.37;11.05;;;;;;;4.29;74.82;99960.35;1770058;81;21304;-79
2022/02/06 10:10:18;;;;;;;20.75;10.18;;;;;;;4.32;74.93;99958.69;1734586;82;21288;-79
2022/02/06 10:13:23;;;;;;;17.40;10.18;;;;;;;4.36;74.80;99961.47;1735869;82;21309;-79
2022/02/06 10:16:30;;;;;;;16.40;8.88;;;;;;;4.39;74.75;99956.78;1735537;82;21839;-79
2022/02/06 10:19:38;;;;;;;20.80;9.60;;;;;;;4.45;74.61;99960.25;1769495;81;21926;-78
2022/02/06 10:22:58;;;;;;;19.62;9.33;;;;;;;4.38;74.54;99953.22;1769983;81;21219;-78
2022/02/06 10:25:55;;;;;;;16.52;9.23;;;;;;;4.32;74.54;99954.63;1735411;82;22571;-79
2022/02/06 10:32:23;;;;;;;15.78;8.55;;;;;;;4.26;75.29;99954.37;1770186;81;21859;-78
2022/02/06 10:35:29;;;;;;;13.78;8.08;;;;;;;4.28;75.50;99969.48;1769409;81;21378;-78
2022/02/06 10:38:37;;;;;;;13.60;7.72;;;;;;;4.30;75.04;99962.05;1777167;80;21385;-78
2022/02/06 10:41:42;;;;;;;14.85;7.47;;;;;;;4.22;74.86;99960.56;1782463;80;21814;-78
2022/02/06 10:44:47;;;;;;;15.13;7.97;;;;;;;4.16;75.03;99963.85;1783639;80;21811;-78
2022/02/06 10:47:58;;;;;;;12.10;6.97;;;;;;;4.13;75.33;99964.13;1783793;80;21814;-79
2022/02/06 10:51:02;;;;;;;;;;;;;;;4.14;75.30;99968.57;1786147;80;21751;-79
2022/02/06 10:54:08;;;;;;;10.75;5.90;;;;;;;4.07;75.30;99974.19;1783789;80;20311;-78
2022/02/06 10:57:22;;;;;;;13.70;6.72;;;;;;;4.07;75.79;99971.48;1783926;80;21763;-78
2022/02/06 11:00:34;;;;;;;13.48;6.95;;;;;;;4.15;76.40;99979.75;1782533;80;21299;-79
2022/02/06 11:03:42;;;;;;;13.25;6.60;;;;;;;4.24;76.17;99971.27;1772240;80;21260;-79
2022/02/06 11:07:03;;;;;;;11.35;6.00;;;;;;;4.24;75.86;99965.35;1784339;80;21157;-78
2022/02/06 11:09:54;;;;;;;14.80;6.87;;;;;;;4.26;75.68;99959.78;1784837;80;21141;-79
2022/02/06 11:13:06;;;;;;;10.55;5.72;;;;;;;4.21;75.50;99962.92;1784310;80;21323;-78
2022/02/06 11:16:27;;;;;;;11.65;5.80;;;;;;;4.15;75.64;99958.09;1783542;80;21322;-79
2022/02/06 11:19:37;;;;;;;11.80;6.35;;;;;;;4.13;76.31;99967.34;1783842;80;21181;-79
2022/02/06 11:22:43;;;;;;;11.25;6.37;;;;;;;4.10;75.96;99969.85;1784752;80;21255;-79
2022/02/06 11:25:50;;;;;;;11.08;6.17;;;;;;;4.04;76.16;99970.40;1784317;80;21180;-78
2022/02/06 11:28:55;;;;;;;11.48;6.28;;;;;;;3.99;76.54;99964.56;1783393;80;21318;-79
2022/02/06 11:32:00;;;;;;;10.75;5.87;;;;;;;3.98;76.93;99973.18;1762092;81;21870;-79
2022/02/06 11:35:14;;;;;;;12.35;5.97;;;;;;;3.97;77.14;99970.63;1761538;81;21835;-79
2022/02/06 11:45:45;;;;;;;26.35;15.03;;;;;;;3.94;77.47;99974.96;1778244;80;21245;-79
2022/02/06 11:48:52;;;;;;;31.87;14.90;;;;;;;3.85;77.45;99970.75;1779913;79;21720;-79
2022/02/06 11:52:04;;;;;;;25.85;12.98;;;;;;;3.78;77.61;99972.33;1776476;80;21347;-79
2022/02/06 11:55:09;;;;;;;20.17;10.25;;;;;;;3.70;77.91;99966.75;1777128;80;22622;-78
2022/02/06 11:58:43;;;;;;;21.55;9.03;;;;;;;3.62;78.30;99973.86;1775325;80;21238;-79
2022/02/06 12:01:50;;;;;;;15.60;7.95;;;;;;;3.58;78.63;99970.10;1792784;80;21165;-78
2022/02/06 12:05:17;;;;;;;15.25;6.87;;;;;;;3.46;78.90;99967.65;1773208;80;21189;-80
2022/02/06 12:08:23;;;;;;;11.45;6.62;;;;;;;3.39;79.24;99970.53;1707004;84;21188;-80
2022/02/06 12:11:28;;;;;;;13.28;6.08;;;;;;;3.29;79.90;99974.56;1711337;83;21394;-80
2022/02/06 12:14:29;;;;;;;16.27;6.85;;;;;;;3.25;80.88;99978.06;1705871;84;21280;-79
2022/02/06 12:20:55;;;;;;;17.73;8.55;;;;;;;3.28;81.14;99979.13;1720398;83;21193;-79
2022/02/06 12:24:03;;;;;;;13.13;7.42;;;;;;;3.27;81.00;99976.56;1721761;83;21271;-80
2022/02/06 12:27:29;;;;;;;14.55;7.95;;;;;;;3.20;81.36;99976.27;1719103;83;21887;-79
2022/02/06 12:30:36;;;;;;;19.35;10.10;;;;;;;3.08;81.66;99973.30;1729557;82;21292;-79
2022/02/06 12:33:54;;;;;;;14.78;9.25;;;;;;;2.97;82.12;99977.47;1720938;82;21316;-79
2022/02/06 12:37:08;;;;;;;20.65;11.20;;;;;;;2.95;82.59;99974.02;1717068;82;21346;-79
2022/02/06 12:40:16;;;;;;;20.60;10.55;;;;;;;2.93;82.89;99974.67;1739449;82;21272;-78
2022/02/06 12:43:28;;;;;;;16.45;9.68;;;;;;;2.91;82.97;99984.73;1800855;79;21256;-78
2022/02/06 12:46:33;;;;;;;17.15;9.40;;;;;;;2.84;83.27;99995.24;1704251;84;21350;-78
2022/02/06 12:49:43;;;;;;;14.73;8.55;;;;;;;2.80;83.67;100002.75;1770217;81;21382;-78
2022/02/06 12:52:48;;;;;;;20.62;8.70;;;;;;;2.80;83.96;99994.64;1768891;81;21799;-78
2022/02/06 12:55:54;;;;;;;18.23;7.97;;;;;;;2.84;84.19;99999.80;1769466;81;21243;-78
2022/02/06 12:58:59;;;;;;;12.63;7.40;;;;;;;2.89;84.26;100001.59;1769503;81;21200;-78
2022/02/06 13:02:06;;;;;;;14.90;7.53;;;;;;;2.91;84.27;100004.50;1768251;81;21299;-78
2022/02/06 13:05:15;;;;;;;14.03;8.08;;;;;;;2.96;84.48;100008.16;1769681;81;21302;-78
2022/02/06 13:08:20;;;;;;;13.58;7.90;;;;;;;3.00;84.70;100007.75;1769839;81;21330;-78
2022/02/06 13:11:36;;;;;;;12.75;7.28;;;;;;;3.05;84.28;100004.64;1769542;81;21196;-78
2022/02/06 13:24:29;;;;;;;18.20;12.13;;;;;;;3.10;83.69;100005.08;1768155;81;21819;-78
2022/02/06 13:34:15;;;;;;;23.40;13.72;;;;;;;2.90;83.84;100008.70;1768546;81;21361;-79
2022/02/06 13:37:12;;;;;;;30.40;14.68;;;;;;;2.83;84.04;100008.39;1769664;81;21172;-79
2022/02/06 13:40:18;;;;;;;30.92;15.85;;;;;;;2.77;84.23;100005.70;1769779;81;21778;-79
2022/02/06 13:43:25;;;;;;;30.82;15.83;;;;;;;2.73;84.38;100006.99;1775378;81;21328;-78
2022/02/06 13:46:33;;;;;;;25.25;14.43;;;;;;;2.67;84.45;100008.85;1778487;80;21297;-79
2022/02/06 13:49:45;;;;;;;27.80;14.25;;;;;;;2.63;84.71;100015.50;1778452;80;21824;-79
2022/02/06 13:52:48;;;;;;;25.30;13.95;;;;;;;2.57;85.00;100009.30;1778018;80;21347;-79
2022/02/06 13:56:07;;;;;;;23.47;12.33;;;;;;;2.53;85.25;100008.70;1778707;80;21150;-79
2022/02/06 13:59:22;;;;;;;20.95;12.58;;;;;;;2.46;85.39;100012.08;1777087;80;21373;-78
2022/02/06 14:02:26;;;;;;;17.12;10.15;;;;;;;2.39;85.67;100012.22;1763001;81;21295;-78
2022/02/06 14:05:34;;;;;;;24.60;11.95;;;;;;;2.36;85.85;100015.20;1761761;81;21862;-79
2022/02/06 14:08:39;;;;;;;19.27;11.80;;;;;;;2.34;85.89;100018.02;1762376;81;21342;-79
2022/02/06 14:11:45;;;;;;;21.77;12.63;;;;;;;2.30;85.99;100025.51;1763099;81;21931;-78
2022/02/06 14:15:00;;;;;;;20.05;12.88;;;;;;;2.30;86.06;100024.16;1766216;81;21213;-78
2022/02/06 14:18:13;;;;;;;27.85;14.58;;;;;;;2.29;86.07;100027.85;1775741;81;21320;-78
2022/02/06 14:21:18;;;;;;;21.90;13.80;;;;;;;2.29;86.14;100025.16;1775582;81;22527;-78
2022/02/06 14:24:23;;;;;;;20.62;13.25;;;;;;;2.32;86.10;100024.05;1774574;81;21218;-78
2022/02/06 14:27:46;;;;;;;26.45;15.45;;;;;;;2.36;85.90;100030.05;1774809;81;21261;-78
2022/02/06 14:30:53;;;;;;;20.17;13.38;;;;;;;2.36;85.87;100021.45;1775556;81;21231;-78
2022/02/06 14:34:00;;;;;;;21.62;11.75;;;;;;;2.39;85.68;100036.52;1774896;81;21351;-78
2022/02/06 14:37:20;;;;;;;23.62;12.58;;;;;;;2.35;85.49;100027.81;1775388;81;21298;-78
2022/02/06 14:41:04;;;;;;;24.32;13.15;;;;;;;2.29;85.30;100032.40;1776367;81;21976;-78
2022/02/06 14:44:06;;;;;;;29.35;13.50;;;;;;;2.19;85.38;100030.97;1767422;81;22001;-77
2022/02/06 14:47:11;;;;;;;29.92;15.18;;;;;;;2.07;85.53;100029.33;1768647;81;21609;-78
2022/02/06 14:50:22;;;;;;;24.00;14.85;;;;;;;2.01;85.74;100029.32;1769893;81;21299;-78
2022/02/06 14:53:28;;;;;;;23.65;13.62;;;;;;;1.95;85.87;100019.55;1769970;81;21272;-78
2022/02/06 14:56:39;;;;;;;25.45;14.70;;;;;;;1.93;85.95;100028.25;1770058;81;21193;-78
2022/02/06 14:59:44;;;;;;;30.08;15.68;;;;;;;1.87;85.99;100032.31;1770286;81;21803;-78
2022/02/06 15:02:49;;;;;;;25.02;14.35;;;;;;;1.83;86.03;100035.39;1770175;81;21292;-78
2022/02/06 15:05:54;;;;;;;37.23;15.48;;;;;;;1.82;86.14;100038.59;1770264;81;21287;-78
2022/02/06 15:09:00;;;;;;;23.12;14.55;;;;;;;1.81;86.27;100041.42;1768781;81;21316;-78
2022/02/06 15:12:06;;;;;;;32.40;15.93;;;;;;;1.84;86.39;100045.23;1768306;81;21303;-78
2022/02/06 15:15:13;;;;;;;27.52;15.68;;;;;;;1.83;86.29;100038.09;1769097;81;22409;-78
2022/02/06 15:21:28;;;;;;;24.80;14.98;;;;;;;1.75;86.13;100046.34;1769334;81;21584;-78
2022/02/06 15:24:34;;;;;;;25.27;15.72;;;;;;;1.67;86.49;100047.45;1768275;81;21894;-77
2022/02/06 15:27:40;;;;;;;32.42;15.23;;;;;;;1.64;86.90;100048.19;1769384;81;21320;-78
2022/02/06 15:30:45;;;;;;;31.93;16.82;;;;;;;1.61;87.19;100049.31;1768912;81;21227;-80
2022/02/06 15:33:53;;;;;;;43.25;17.50;;;;;;;1.61;87.34;100052.51;1769059;81;21326;-79
2022/02/06 15:37:04;;;;;;;31.77;15.20;;;;;;;1.58;87.54;100044.16;1769065;81;21213;-79
2022/02/06 15:40:09;;;;;;;24.12;14.00;;;;;;;1.57;87.72;100052.39;1768757;81;21337;-79
2022/02/06 15:43:14;;;;;;;22.48;12.10;;;;;;;1.57;87.94;100052.39;1767688;81;21225;-79
2022/02/06 15:46:20;;;;;;;24.07;13.00;;;;;;;1.54;88.04;100054.83;1769627;81;21311;-79
2022/02/06 15:49:25;;;;;;;29.95;15.78;;;;;;;1.51;88.16;100055.09;1769527;81;21573;-78
2022/02/06 15:52:31;;;;;;;27.32;15.90;;;;;;;1.48;88.33;100056.69;1768880;81;21312;-79
2022/02/06 15:55:37;;;;;;;23.80;13.58;;;;;;;1.50;88.62;100058.25;1768019;81;21265;-79
2022/02/06 15:58:42;;;;;;;23.18;12.85;;;;;;;1.49;88.59;100053.00;1767769;81;21301;-79
2022/02/06 16:01:50;;;;;;;26.50;15.00;;;;;;;1.45;88.65;100058.27;1732123;82;21318;-78
2022/02/06 16:04:56;;;;;;;23.47;14.75;;;;;;;1.38;88.50;100060.61;1768884;81;21181;-78
2022/02/06 16:08:02;;;;;;;22.67;14.25;;;;;;;1.35;88.42;100060.00;1800902;79;21807;-79
2022/02/06 16:11:09;;;;;;;19.42;11.95;;;;;;;1.34;88.35;100060.98;1799784;79;21347;-79
2022/02/06 16:14:14;;;;;;;29.20;15.32;;;;;;;1.31;88.04;100058.52;1793545;79;21531;-79
2022/02/06 16:17:19;;;;;;;25.30;12.25;;;;;;;1.12;87.45;100069.42;1769347;81;21313;-79
2022/02/06 16:20:23;;;;;;;21.68;10.68;;;;;;;0.96;87.68;100070.28;1769118;81;21362;-79
2022/02/06 16:23:31;;;;;;;14.55;9.20;;;;;;;0.85;88.01;100067.09;1768873;81;21327;-79
2022/02/06 16:26:36;;;;;;;18.48;10.68;;;;;;;0.71;88.59;100064.13;1767571;81;21347;-79
2022/02/06 16:29:44;;;;;;;22.80;12.78;;;;;;;0.61;89.44;100074.36;1771640;79;21326;-79
2022/02/06 16:32:51;;;;;;;20.25;12.78;;;;;;;0.55;90.22;100070.31;1769528;81;21323;-79
2022/02/06 16:35:57;;;;;;;20.30;11.03;;;;;;;0.48;91.00;100069.95;1769790;81;21832;-78
2022/02/06 16:39:02;;;;;;;19.87;11.03;;;;;;;0.47;91.85;100075.42;1769853;81;21273;-78
2022/02/06 16:42:08;;;;;;;18.35;11.45;;;;;;;0.47;92.48;100073.63;1769495;81;21709;-79
2022/02/06 16:45:13;;;;;;;22.65;12.60;;;;;;;0.50;92.89;100073.36;1765088;79;21227;-79